createdAt,value
2022-11-24T00:01:04.115Z,17.23
2022-11-24T00:03:33.136Z,16.57
2022-11-24T00:06:04.413Z,16.90
2022-11-24T00:08:31.925Z,17.33
2022-11-24T00:11:04.547Z,16.23
2022-11-24T00:13:32.088Z,14.60
2022-11-24T00:16:06.465Z,14.60
2022-11-24T00:18:35.413Z,17.03
2022-11-24T00:21:03.072Z,15.27
2022-11-24T00:23:30.642Z,13.97
2022-11-24T00:26:05.398Z,16.80
2022-11-24T00:28:33.723Z,15.60
2022-11-24T00:31:01.557Z,17.50
2022-11-24T00:33:29.208Z,16.37
2022-11-24T00:35:59.348Z,16.73
2022-11-24T00:38:27.365Z,17.10
2022-11-24T00:40:54.901Z,17.53
2022-11-24T00:43:22.601Z,17.17
2022-11-24T00:45:50.190Z,17.33
2022-11-24T00:48:17.780Z,17.23
2022-11-24T00:50:45.329Z,16.53
2022-11-24T00:53:14.193Z,17.60
2022-11-24T00:55:41.713Z,16.07
2022-11-24T00:58:09.215Z,17.97
2022-11-24T01:00:36.753Z,16.13
2022-11-24T01:03:04.354Z,16.30
2022-11-24T01:05:31.956Z,15.40
2022-11-24T01:07:59.466Z,14.47
2022-11-24T01:10:28.422Z,13.37
2022-11-24T01:12:55.968Z,13.73
2022-11-24T01:15:23.505Z,18.60
2022-11-24T01:17:51.087Z,14.70
2022-11-24T01:20:18.851Z,14.20
2022-11-24T01:22:48.939Z,14.90
2022-11-24T01:25:17.038Z,16.23
2022-11-24T01:27:45.971Z,17.83
2022-11-24T01:30:13.555Z,19.90
2022-11-24T01:32:41.101Z,14.80
2022-11-24T01:35:09.943Z,13.27
2022-11-24T01:37:37.479Z,19.93
2022-11-24T01:40:05.855Z,18.03
2022-11-24T01:42:41.047Z,13.13
2022-11-24T01:45:33.295Z,16.03
2022-11-24T01:48:05.489Z,14.13
2022-11-24T01:50:35.090Z,14.83
2022-11-24T01:53:03.046Z,18.33
2022-11-24T01:55:35.542Z,15.90
2022-11-24T01:58:06.279Z,15.80
2022-11-24T02:00:37.220Z,13.90
2022-11-24T02:03:05.081Z,18.07
2022-11-24T02:05:40.144Z,16.27
2022-11-24T02:08:15.752Z,17.57
2022-11-24T02:10:45.304Z,18.97
2022-11-24T02:13:14.000Z,16.13
2022-11-24T02:15:43.164Z,17.17
2022-11-24T02:18:11.024Z,19.40
2022-11-24T02:20:38.762Z,18.70
2022-11-24T02:23:16.415Z,15.37
2022-11-24T02:25:53.784Z,19.53
2022-11-24T02:28:27.813Z,21.77
2022-11-24T02:30:55.562Z,20.80
2022-11-24T02:33:25.222Z,18.63
2022-11-24T02:35:53.053Z,17.50
2022-11-24T02:38:20.596Z,17.60
2022-11-24T02:40:49.898Z,18.67
2022-11-24T02:43:22.304Z,21.53
2022-11-24T02:45:51.231Z,18.87
2022-11-24T02:48:19.627Z,16.73
2022-11-24T02:50:47.199Z,12.33
2022-11-24T02:53:14.800Z,15.70
2022-11-24T02:55:42.336Z,15.40
2022-11-24T02:58:10.043Z,16.07
2022-11-24T03:00:37.584Z,17.93
2022-11-24T03:03:06.642Z,10.73
2022-11-24T03:05:34.260Z,16.67
2022-11-24T03:08:01.788Z,17.47
2022-11-24T03:10:29.464Z,11.57
2022-11-24T03:12:57.344Z,12.30
2022-11-24T03:15:25.123Z,17.33
2022-11-24T03:17:56.385Z,14.53
2022-11-24T03:20:25.963Z,16.27
2022-11-24T03:22:53.912Z,17.53
2022-11-24T03:25:22.031Z,13.27
2022-11-24T03:27:49.564Z,14.83
2022-11-24T03:30:17.732Z,13.00
2022-11-24T03:32:45.268Z,14.90
2022-11-24T03:35:13.063Z,14.40
2022-11-24T03:37:41.972Z,12.83
2022-11-24T03:40:10.528Z,16.33
2022-11-24T03:42:38.059Z,14.80
2022-11-24T03:47:54.018Z,15.80
2022-11-24T03:50:21.554Z,15.07
2022-11-24T03:52:50.450Z,17.80
2022-11-24T03:55:18.005Z,14.50
2022-11-24T03:57:45.617Z,18.23
2022-11-24T04:00:13.978Z,12.10
2022-11-24T04:02:41.572Z,13.93
2022-11-24T04:05:09.632Z,15.93
2022-11-24T04:07:37.314Z,14.43
2022-11-24T04:10:07.817Z,12.90
2022-11-24T04:12:46.644Z,16.83
2022-11-24T04:15:16.451Z,13.67
2022-11-24T04:17:44.376Z,12.60
2022-11-24T04:20:13.318Z,20.00
2022-11-24T04:22:41.201Z,15.93
2022-11-24T04:25:11.275Z,14.20
2022-11-24T04:27:39.488Z,15.77
2022-11-24T04:30:08.477Z,12.57
2022-11-24T04:32:36.287Z,12.87
2022-11-24T04:35:04.162Z,12.23
2022-11-24T04:37:31.711Z,10.50
2022-11-24T04:39:59.212Z,19.40
2022-11-24T04:42:28.110Z,15.23
2022-11-24T04:44:55.680Z,16.97
2022-11-24T04:47:25.195Z,11.27
2022-11-24T04:49:53.178Z,14.77
2022-11-24T04:52:22.883Z,14.50
2022-11-24T04:54:50.741Z,11.20
2022-11-24T04:57:19.689Z,12.10
2022-11-24T04:59:48.622Z,12.57
2022-11-24T05:02:16.195Z,11.33
2022-11-24T05:04:43.811Z,10.50
2022-11-24T05:07:17.971Z,15.43
2022-11-24T05:10:04.189Z,18.43
2022-11-24T05:12:31.957Z,16.40
2022-11-24T05:15:01.736Z,16.03
2022-11-24T05:17:30.804Z,11.93
2022-11-24T05:19:58.518Z,19.33
2022-11-24T05:22:26.895Z,18.47
2022-11-24T05:24:54.507Z,13.33
2022-11-24T05:27:22.228Z,15.00
2022-11-24T05:29:50.042Z,23.07
2022-11-24T05:32:18.969Z,14.73
2022-11-24T05:34:46.510Z,14.53
2022-11-24T05:37:14.150Z,17.97
2022-11-24T05:39:41.683Z,12.70
2022-11-24T05:42:23.498Z,15.60
2022-11-24T05:44:51.046Z,14.70
2022-11-24T05:47:20.605Z,15.53
2022-11-24T05:49:48.444Z,13.47
2022-11-24T05:52:16.141Z,9.63
2022-11-24T05:54:43.816Z,11.87
2022-11-24T05:57:11.386Z,11.83
2022-11-24T05:59:38.919Z,17.00
2022-11-24T06:02:06.589Z,11.97
2022-11-24T06:04:35.720Z,7.83
2022-11-24T06:07:03.602Z,14.17
2022-11-24T06:09:31.126Z,13.90
2022-11-24T06:11:58.615Z,14.73
2022-11-24T06:14:26.116Z,15.40
2022-11-24T06:16:53.762Z,11.43
2022-11-24T06:19:21.309Z,14.37
2022-11-24T06:21:50.196Z,15.67
2022-11-24T06:24:17.735Z,12.43
2022-11-24T06:26:45.297Z,12.50
2022-11-24T06:29:12.823Z,14.33
2022-11-24T06:31:40.389Z,12.67
2022-11-24T06:34:08.383Z,16.43
2022-11-24T06:36:35.904Z,9.37
2022-11-24T06:39:05.664Z,17.50
2022-11-24T06:41:33.564Z,14.20
2022-11-24T06:44:03.956Z,11.80
2022-11-24T06:46:31.512Z,13.50
2022-11-24T06:49:00.577Z,15.73
2022-11-24T06:51:28.341Z,17.23
2022-11-24T06:53:55.903Z,14.33
2022-11-24T06:56:24.768Z,13.63
2022-11-24T06:58:53.860Z,18.10
2022-11-24T07:01:23.821Z,13.50
2022-11-24T07:03:52.194Z,17.93
2022-11-24T07:06:20.961Z,10.70
2022-11-24T07:08:48.883Z,20.03
2022-11-24T07:11:18.995Z,13.70
2022-11-24T07:13:48.998Z,15.03
2022-11-24T07:16:18.991Z,15.77
2022-11-24T07:18:47.966Z,10.37
2022-11-24T07:21:16.320Z,13.13
2022-11-24T07:23:44.231Z,14.47
2022-11-24T07:26:11.961Z,8.47
2022-11-24T07:28:39.463Z,13.00
2022-11-24T07:31:09.520Z,9.80
2022-11-24T07:33:37.375Z,10.27
2022-11-24T07:36:06.426Z,10.87
2022-11-24T07:38:34.562Z,14.77
2022-11-24T07:41:02.388Z,11.33
2022-11-24T07:43:31.518Z,5.73
2022-11-24T07:45:59.088Z,11.20
2022-11-24T07:48:28.260Z,8.67
2022-11-24T07:50:56.490Z,10.17
2022-11-24T07:53:24.135Z,6.90
2022-11-24T07:55:55.526Z,10.20
2022-11-24T07:58:26.493Z,10.23
2022-11-24T08:00:56.672Z,9.67
2022-11-24T08:03:25.202Z,10.33
2022-11-24T08:08:46.161Z,9.30
2022-11-24T08:11:15.090Z,9.23
2022-11-24T08:13:43.084Z,10.57
2022-11-24T08:16:13.116Z,10.43
2022-11-24T08:18:40.809Z,10.57
2022-11-24T08:21:13.232Z,10.03
2022-11-24T08:23:40.956Z,9.67
2022-11-24T08:26:11.837Z,7.23
2022-11-24T08:28:39.348Z,8.27
2022-11-24T08:31:09.055Z,7.70
2022-11-24T08:33:37.524Z,8.77
2022-11-24T08:36:06.065Z,8.97
2022-11-24T08:38:34.964Z,9.50
2022-11-24T08:41:03.329Z,10.67
2022-11-24T08:43:31.356Z,10.67
2022-11-24T08:46:01.122Z,10.83
2022-11-24T08:48:29.132Z,6.83
2022-11-24T08:50:56.911Z,8.30
2022-11-24T08:53:24.629Z,9.83
2022-11-24T08:55:53.517Z,12.27
2022-11-24T08:58:21.029Z,9.67
2022-11-24T09:00:48.547Z,8.00
2022-11-24T09:03:16.104Z,9.53
2022-11-24T09:05:51.811Z,10.03
2022-11-24T09:08:20.621Z,8.73
2022-11-24T09:10:48.224Z,8.93
2022-11-24T09:13:17.078Z,6.53
2022-11-24T09:15:45.280Z,7.37
2022-11-24T09:18:12.799Z,9.57
2022-11-24T09:20:40.643Z,7.00
2022-11-24T09:23:08.155Z,6.40
2022-11-24T09:25:35.667Z,9.53
2022-11-24T09:28:03.187Z,4.77
2022-11-24T09:30:32.245Z,9.27
2022-11-24T09:32:59.831Z,8.53
2022-11-24T09:35:27.324Z,9.30
2022-11-24T09:37:54.863Z,11.60
2022-11-24T09:40:23.676Z,11.07
2022-11-24T09:42:59.474Z,7.40
2022-11-24T09:46:04.556Z,8.03
2022-11-24T09:48:35.892Z,12.20
2022-11-24T09:51:05.369Z,9.70
2022-11-24T09:53:38.677Z,7.37
2022-11-24T09:56:16.973Z,8.70
2022-11-24T09:58:48.285Z,12.03
2022-11-24T10:01:20.114Z,9.07
2022-11-24T10:03:50.778Z,15.10
2022-11-24T10:06:27.687Z,10.23
2022-11-24T10:09:11.459Z,9.80
2022-11-24T10:11:44.689Z,9.07
2022-11-24T10:14:29.998Z,7.77
2022-11-24T10:17:12.336Z,8.77
2022-11-24T10:19:49.279Z,8.33
2022-11-24T10:22:28.743Z,10.50
2022-11-24T10:25:08.264Z,8.90
2022-11-24T10:27:40.264Z,5.93
2022-11-24T10:30:15.771Z,7.67
2022-11-24T10:32:48.354Z,9.00
2022-11-24T10:35:19.471Z,12.43
2022-11-24T10:38:03.347Z,10.73
2022-11-24T10:43:26.783Z,6.43
2022-11-24T10:45:55.642Z,7.07
2022-11-24T10:48:27.265Z,8.40
2022-11-24T10:51:02.915Z,5.83
2022-11-24T10:53:31.833Z,6.00
2022-11-24T10:56:05.697Z,4.07
2022-11-24T10:58:38.031Z,4.90
2022-11-24T11:01:21.621Z,9.40
2022-11-24T11:03:53.244Z,6.30
2022-11-24T11:06:24.305Z,11.97
2022-11-24T11:09:18.971Z,5.77
2022-11-24T11:11:48.317Z,3.70
2022-11-24T11:14:32.259Z,4.63
2022-11-24T11:17:00.370Z,11.87
2022-11-24T11:19:58.454Z,6.30
2022-11-24T11:22:27.839Z,6.80
2022-11-24T11:25:08.057Z,4.70
2022-11-24T11:27:35.608Z,3.27
2022-11-24T11:36:15.543Z,4.20
2022-11-24T11:38:45.074Z,6.77
2022-11-24T11:41:21.696Z,6.47
2022-11-24T11:43:55.288Z,4.43
2022-11-24T11:46:25.684Z,4.23
2022-11-24T11:48:53.272Z,4.57
2022-11-24T11:51:39.290Z,4.20
2022-11-24T11:54:12.840Z,4.63
2022-11-24T11:56:45.293Z,6.47
2022-11-24T11:59:42.839Z,4.90
2022-11-24T12:02:53.961Z,5.63
2022-11-24T12:05:31.478Z,3.90
2022-11-24T12:08:20.962Z,6.17
2022-11-24T12:10:54.804Z,6.30
2022-11-24T12:13:51.947Z,4.67
2022-11-24T12:16:33.386Z,6.40
2022-11-24T12:19:25.331Z,4.57
2022-11-24T12:22:00.372Z,4.50
2022-11-24T12:24:36.593Z,5.77
2022-11-24T12:27:14.807Z,3.67
2022-11-24T12:30:06.692Z,7.70
2022-11-24T12:32:51.768Z,6.67
2022-11-24T12:35:27.884Z,3.30
2022-11-24T12:38:06.411Z,4.20
2022-11-24T12:40:47.237Z,4.03
2022-11-24T12:43:20.505Z,6.03
2022-11-24T12:45:57.770Z,5.80
2022-11-24T12:48:37.687Z,4.67
2022-11-24T12:51:07.462Z,4.37
2022-11-24T12:53:38.352Z,4.50
2022-11-24T12:56:08.428Z,5.20
2022-11-24T12:58:45.597Z,6.40
2022-11-24T13:01:25.970Z,4.77
2022-11-24T13:04:10.976Z,4.97
2022-11-24T13:06:49.753Z,5.60
2022-11-24T13:09:18.165Z,6.40
2022-11-24T13:11:47.120Z,4.90
2022-11-24T13:14:21.985Z,5.40
2022-11-24T13:17:27.852Z,6.27
2022-11-24T13:19:44.241Z,5.17
2022-11-24T13:22:16.601Z,5.33
2022-11-24T13:24:44.830Z,5.17
2022-11-24T13:27:39.927Z,7.90
2022-11-24T13:30:50.102Z,4.87
2022-11-24T13:33:35.897Z,7.93
2022-11-24T13:36:31.870Z,5.07
2022-11-24T13:39:00.643Z,7.57
2022-11-24T13:42:43.457Z,6.47
2022-11-24T13:44:59.512Z,5.20
2022-11-24T13:47:45.120Z,5.60
2022-11-24T13:50:25.251Z,5.67
2022-11-24T13:53:01.715Z,4.10
2022-11-24T13:55:38.705Z,7.63
2022-11-24T13:58:27.704Z,6.50
2022-11-24T14:01:04.102Z,5.40
2022-11-24T14:03:36.020Z,7.27
2022-11-24T14:06:05.618Z,6.20
2022-11-24T14:08:36.353Z,4.70
2022-11-24T14:11:12.378Z,6.70
2022-11-24T14:13:39.931Z,8.20
2022-11-24T14:16:16.405Z,5.90
2022-11-24T14:18:45.788Z,7.77
2022-11-24T14:21:24.564Z,8.37
2022-11-24T14:23:55.056Z,6.90
2022-11-24T14:26:24.283Z,9.80
2022-11-24T14:28:53.300Z,6.17
2022-11-24T14:31:24.398Z,4.27
2022-11-24T14:34:07.975Z,5.00
2022-11-24T14:36:36.868Z,4.97
2022-11-24T14:39:05.196Z,5.00
2022-11-24T14:41:34.411Z,4.97
2022-11-24T14:44:08.058Z,5.07
2022-11-24T14:46:37.010Z,5.27
2022-11-24T14:49:05.509Z,6.37
2022-11-24T14:51:36.410Z,7.07
2022-11-24T14:54:08.176Z,4.43
2022-11-24T14:56:37.429Z,5.53
2022-11-24T14:59:21.228Z,5.57
2022-11-24T15:01:48.843Z,5.70
2022-11-24T15:04:54.550Z,6.63
2022-11-24T15:07:14.824Z,6.87
2022-11-24T15:09:52.107Z,5.63
2022-11-24T15:12:28.528Z,6.43
2022-11-24T15:14:59.011Z,8.57
2022-11-24T15:17:29.071Z,6.67
2022-11-24T15:20:01.540Z,6.13
2022-11-24T15:22:40.532Z,6.43
2022-11-24T15:25:28.616Z,8.97
2022-11-24T15:27:56.204Z,7.10
2022-11-24T15:30:23.856Z,4.83
2022-11-24T15:32:53.183Z,4.77
2022-11-24T15:35:21.682Z,4.20
2022-11-24T15:37:49.214Z,4.50
2022-11-24T15:40:17.171Z,4.80
2022-11-24T15:42:51.071Z,5.90
2022-11-24T15:45:19.272Z,3.67
2022-11-24T15:47:47.011Z,5.10
2022-11-24T15:50:15.814Z,4.50
2022-11-24T15:52:43.904Z,8.67
2022-11-24T15:55:18.441Z,4.53
2022-11-24T15:57:47.984Z,6.13
2022-11-24T16:00:18.266Z,4.67
2022-11-24T16:02:45.884Z,4.77
2022-11-24T16:05:14.561Z,6.83
2022-11-24T16:07:42.184Z,9.83
2022-11-24T16:10:20.192Z,10.90
2022-11-24T16:12:49.048Z,9.60
2022-11-24T16:15:16.819Z,8.67
2022-11-24T16:17:44.433Z,7.87
2022-11-24T16:20:12.349Z,6.60
2022-11-24T16:22:39.959Z,11.77
2022-11-24T16:25:08.347Z,8.33
2022-11-24T16:27:35.928Z,5.50
2022-11-24T16:30:05.524Z,5.20
2022-11-24T16:32:33.076Z,5.47
2022-11-24T16:35:00.731Z,5.33
2022-11-24T16:37:28.283Z,7.13
2022-11-24T16:39:55.781Z,4.37
2022-11-24T16:42:23.316Z,6.50
2022-11-24T16:44:51.919Z,5.03
2022-11-24T16:47:21.083Z,13.93
2022-11-24T16:49:48.671Z,13.23
2022-11-24T16:52:16.447Z,7.40
2022-11-24T16:54:46.128Z,6.77
2022-11-24T16:57:15.113Z,7.30
2022-11-24T16:59:45.835Z,6.83
2022-11-24T17:02:14.027Z,7.07
2022-11-24T17:04:42.998Z,6.60
2022-11-24T17:07:10.591Z,6.37
2022-11-24T17:09:40.722Z,5.37
2022-11-24T17:12:08.544Z,7.63
2022-11-24T17:14:36.949Z,6.27
2022-11-24T17:17:04.772Z,10.03
2022-11-24T17:19:32.635Z,6.10
2022-11-24T17:22:01.536Z,8.67
2022-11-24T17:24:29.094Z,6.57
2022-11-24T17:26:56.614Z,5.50
2022-11-24T17:29:24.394Z,7.80
2022-11-24T17:31:51.974Z,14.97
2022-11-24T17:34:19.893Z,13.53
2022-11-24T17:36:47.407Z,11.90
2022-11-24T17:39:19.140Z,12.23
2022-11-24T17:41:50.834Z,12.87
2022-11-24T17:44:18.364Z,14.07
2022-11-24T17:46:45.892Z,12.10
2022-11-24T17:49:14.344Z,10.03
2022-11-24T17:51:41.872Z,9.60
2022-11-24T17:54:39.177Z,9.47
2022-11-24T17:56:58.480Z,11.17
2022-11-24T17:59:26.006Z,7.37
2022-11-24T18:01:53.609Z,8.33
2022-11-24T18:04:21.262Z,8.10
2022-11-24T18:06:48.786Z,9.93
2022-11-24T18:09:16.348Z,9.63
2022-11-24T18:11:44.187Z,10.57
2022-11-24T18:14:13.080Z,9.67
2022-11-24T18:16:40.634Z,9.87
2022-11-24T18:19:10.903Z,8.73
2022-11-24T18:21:39.961Z,7.67
2022-11-24T18:24:08.211Z,10.53
2022-11-24T18:26:35.750Z,7.80
2022-11-24T18:29:03.447Z,7.53
2022-11-24T18:31:34.204Z,10.10
2022-11-24T18:34:02.455Z,7.20
2022-11-24T18:36:30.926Z,8.03
2022-11-24T18:38:58.672Z,8.07
2022-11-24T18:41:27.050Z,9.27
2022-11-24T18:43:54.583Z,11.00
2022-11-24T18:46:22.277Z,7.63
2022-11-24T18:48:51.928Z,8.63
2022-11-24T18:51:19.583Z,7.80
2022-11-24T18:53:47.795Z,8.93
2022-11-24T18:56:16.749Z,9.00
2022-11-24T18:58:45.116Z,8.27
2022-11-24T19:01:14.569Z,6.17
2022-11-24T19:03:48.785Z,8.23
2022-11-24T19:06:20.008Z,7.63
2022-11-24T19:08:48.732Z,6.37
2022-11-24T19:11:20.350Z,8.63
2022-11-24T19:13:49.027Z,22.43
2022-11-24T19:16:17.787Z,10.63
2022-11-24T19:18:48.949Z,7.23
2022-11-24T19:21:22.777Z,7.87
2022-11-24T19:23:50.955Z,11.80
2022-11-24T19:26:18.797Z,8.90
2022-11-24T19:28:46.483Z,8.43
2022-11-24T19:31:15.796Z,9.93
2022-11-24T19:33:43.510Z,5.77
2022-11-24T19:36:13.842Z,10.03
2022-11-24T19:38:49.785Z,12.33
2022-11-24T19:41:19.255Z,7.03
2022-11-24T19:43:47.292Z,14.83
2022-11-24T19:46:17.400Z,10.87
2022-11-24T19:48:47.156Z,9.87
2022-11-24T19:51:16.688Z,10.90
2022-11-24T19:53:45.898Z,7.83
2022-11-24T19:56:15.346Z,7.77
2022-11-24T19:58:43.611Z,10.60
2022-11-24T20:01:14.074Z,12.20
2022-11-24T20:03:43.581Z,12.47
2022-11-24T20:06:12.691Z,10.30
2022-11-24T20:08:42.426Z,6.47
2022-11-24T20:11:13.127Z,10.30
2022-11-24T20:13:42.579Z,8.10
2022-11-24T20:16:12.018Z,8.27
2022-11-24T20:18:42.257Z,11.93
2022-11-24T20:21:11.650Z,11.03
2022-11-24T20:23:39.926Z,7.77
2022-11-24T20:26:09.228Z,10.93
2022-11-24T20:28:38.690Z,12.43
2022-11-24T20:31:07.913Z,11.43
2022-11-24T20:33:36.808Z,8.70
2022-11-24T20:36:05.934Z,8.67
2022-11-24T20:38:34.416Z,8.63
2022-11-24T20:41:08.825Z,9.50
2022-11-24T20:43:39.070Z,11.70
2022-11-24T20:46:09.594Z,9.93
2022-11-24T20:48:37.677Z,11.30
2022-11-24T20:51:06.330Z,13.83
2022-11-24T20:53:34.176Z,15.83
2022-11-24T20:56:06.232Z,9.13
2022-11-24T20:58:35.043Z,7.70
2022-11-24T21:01:09.765Z,9.40
2022-11-24T21:03:42.742Z,9.27
2022-11-24T21:06:11.196Z,12.03
2022-11-24T21:08:40.130Z,9.53
2022-11-24T21:11:10.266Z,12.37
2022-11-24T21:13:39.042Z,7.03
2022-11-24T21:16:15.470Z,8.17
2022-11-24T21:18:44.433Z,8.97
2022-11-24T21:21:12.991Z,8.53
2022-11-24T21:23:40.837Z,10.90
2022-11-24T21:26:16.335Z,10.77
2022-11-24T21:28:45.478Z,6.70
2022-11-24T21:31:17.255Z,8.97
2022-11-24T21:33:47.356Z,10.90
2022-11-24T21:36:17.735Z,8.30
2022-11-24T21:38:50.223Z,12.40
2022-11-24T21:41:18.435Z,10.70
2022-11-24T21:43:46.440Z,11.40
2022-11-24T21:46:15.501Z,14.43
2022-11-24T21:48:43.662Z,10.20
2022-11-24T21:51:13.984Z,13.13
2022-11-24T21:53:41.748Z,13.13
2022-11-24T21:56:12.869Z,10.90
2022-11-24T21:58:45.509Z,11.50
2022-11-24T22:01:15.374Z,8.87
2022-11-24T22:03:43.166Z,10.37
2022-11-24T22:06:10.956Z,10.67
2022-11-24T22:08:38.656Z,8.67
2022-11-24T22:11:08.467Z,13.97
2022-11-24T22:13:36.268Z,10.73
2022-11-24T22:16:05.876Z,12.00
2022-11-24T22:18:36.872Z,10.03
2022-11-24T22:21:05.677Z,9.03
2022-11-24T22:23:35.970Z,11.97
2022-11-24T22:26:04.761Z,9.97
2022-11-24T22:28:33.491Z,9.73
2022-11-24T22:31:04.678Z,21.30
2022-11-24T22:33:32.214Z,19.97
2022-11-24T22:36:02.264Z,14.57
2022-11-24T22:38:31.104Z,13.67
2022-11-24T22:41:02.543Z,16.30
2022-11-24T22:43:32.541Z,14.27
2022-11-24T22:46:04.328Z,19.83
2022-11-24T22:48:32.112Z,11.43
2022-11-24T22:51:05.486Z,24.77
2022-11-24T22:53:33.464Z,23.33
2022-11-24T22:56:04.809Z,37.33
2022-11-24T22:58:33.243Z,23.17
2022-11-24T23:01:05.064Z,19.23
2022-11-24T23:03:35.645Z,20.93
2022-11-24T23:06:06.124Z,20.13
2022-11-24T23:08:34.872Z,13.37
2022-11-24T23:11:03.592Z,12.57
2022-11-24T23:13:31.584Z,15.53
2022-11-24T23:16:02.993Z,15.57
2022-11-24T23:18:30.892Z,13.27
2022-11-24T23:21:04.529Z,13.43
2022-11-24T23:23:33.692Z,14.50
2022-11-24T23:26:01.741Z,12.00
2022-11-24T23:28:29.375Z,19.33
2022-11-24T23:31:01.126Z,15.77
2022-11-24T23:33:28.692Z,10.53
2022-11-24T23:35:56.220Z,16.37
2022-11-24T23:38:28.503Z,11.33
2022-11-24T23:40:57.617Z,22.63
2022-11-24T23:43:25.149Z,16.47
2022-11-24T23:45:53.261Z,31.67
2022-11-24T23:48:20.835Z,37.23
2022-11-24T23:50:48.463Z,40.00
2022-11-24T23:53:15.992Z,29.10
2022-11-24T23:55:43.496Z,81.90
2022-11-24T23:58:12.697Z,26.20
